Time;durP1;ratioP1;P1;durP2;ratioP2;P2;SDS_P1;SDS_P2;PMS_P1;PMS_P2;Temp;Humidity;BMP_temperature;BMP_pressure;BME280_temperature;BME280_humidity;BME280_pressure;Samples;Min_cycle;Max_cycle;Signal;HPM_P1;HPM_P2
2022/05/23 00:01:27;;;;;;;1.83;1.70;;;;;;;;;;5022556;28;20210;-60
2022/05/23 00:03:54;;;;;;;1.70;1.60;;;;;;;;;;5026900;28;20319;-60
2022/05/23 00:06:21;;;;;;;1.55;1.45;;;;;;;;;;5027100;28;20221;-60
2022/05/23 00:08:50;;;;;;;1.80;1.45;;;;;;;;;;5027305;28;20208;-60
2022/05/23 00:11:18;;;;;;;1.75;1.65;;;;;;;;;;5024019;28;20306;-60
2022/05/23 00:13:45;;;;;;;2.13;2.00;;;;;;;;;;5025531;28;20196;-60
2022/05/23 00:16:16;;;;;;;1.77;1.40;;;;;;;;;;5025082;28;20247;-60
2022/05/23 00:18:43;;;;;;;1.80;1.70;;;;;;;;;;5027207;28;20220;-60
2022/05/23 00:21:10;;;;;;;1.50;1.40;;;;;;;;;;5027323;28;20598;-60
2022/05/23 00:23:37;;;;;;;2.28;1.42;;;;;;;;;;5023207;28;20232;-60
2022/05/23 00:26:04;;;;;;;1.42;1.33;;;;;;;;;;5023949;28;20738;-60
2022/05/23 00:28:31;;;;;;;1.92;1.42;;;;;;;;;;5026951;28;20236;-61
2022/05/23 00:30:58;;;;;;;3.88;1.95;;;;;;;;;;5025429;28;20812;-60
2022/05/23 00:36:12;;;;;;;1.52;1.40;;;;;;;;;;5025345;28;20215;-60
2022/05/23 00:38:39;;;;;;;1.58;1.52;;;;;;;;;;5023273;28;20292;-59
2022/05/23 00:44:00;;;;;;;2.17;2.00;;;;;;;;;;5027112;28;20576;-61
2022/05/23 00:46:27;;;;;;;1.60;1.60;;;;;;;;;;5027571;28;20212;-59
2022/05/23 00:48:59;;;;;;;1.60;1.60;;;;;;;;;;5027266;28;20205;-60
2022/05/23 00:51:27;;;;;;;2.50;1.50;;;;;;;;;;5028002;28;20718;-60
2022/05/23 00:53:55;;;;;;;1.70;1.60;;;;;;;;;;5026992;28;20295;-59
2022/05/23 00:56:27;;;;;;;2.78;1.50;;;;;;;;;;5027828;28;20217;-59
2022/05/23 00:58:57;;;;;;;1.58;1.40;;;;;;;;;;5025939;28;20204;-60
2022/05/23 01:01:25;;;;;;;1.52;1.42;;;;;;;;;;5027041;28;20748;-60
2022/05/23 01:03:52;;;;;;;1.50;1.50;;;;;;;;;;5025429;28;20294;-60
2022/05/23 01:06:21;;;;;;;1.30;1.30;;;;;;;;;;5024233;28;20864;-61
2022/05/23 01:08:49;;;;;;;1.70;1.60;;;;;;;;;;5024922;28;20204;-60
2022/05/23 01:11:16;;;;;;;1.40;1.30;;;;;;;;;;5025473;28;20216;-60
2022/05/23 01:13:44;;;;;;;1.95;1.40;;;;;;;;;;5027021;28;20200;-60
2022/05/23 01:16:11;;;;;;;2.83;1.63;;;;;;;;;;5026940;28;20200;-59
2022/05/23 01:18:39;;;;;;;1.70;1.40;;;;;;;;;;5025572;28;20926;-61
2022/05/23 01:21:07;;;;;;;1.63;1.52;;;;;;;;;;5026121;28;20219;-60
2022/05/23 01:23:39;;;;;;;3.92;1.60;;;;;;;;;;5023861;28;20228;-60
2022/05/23 01:26:08;;;;;;;1.67;1.58;;;;;;;;;;5025124;28;20236;-60
2022/05/23 01:28:37;;;;;;;1.48;1.38;;;;;;;;;;5025566;28;20244;-60
2022/05/23 01:31:04;;;;;;;2.55;1.70;;;;;;;;;;5026516;28;20208;-60
2022/05/23 01:33:32;;;;;;;2.05;1.65;;;;;;;;;;5024883;28;20251;-60
2022/05/23 01:35:59;;;;;;;1.95;1.52;;;;;;;;;;5025356;28;20257;-60
2022/05/23 01:38:26;;;;;;;1.52;1.42;;;;;;;;;;5023661;28;20258;-60
2022/05/23 01:40:53;;;;;;;1.50;1.50;;;;;;;;;;5024786;28;20200;-60
2022/05/23 01:43:21;;;;;;;1.45;1.40;;;;;;;;;;5024421;28;20228;-60
2022/05/23 01:45:48;;;;;;;1.35;1.35;;;;;;;;;;5029257;28;20965;-59
2022/05/23 01:48:15;;;;;;;1.38;1.35;;;;;;;;;;5029292;28;20215;-59
2022/05/23 01:50:42;;;;;;;1.40;1.30;;;;;;;;;;5027273;28;20208;-59
2022/05/23 01:53:09;;;;;;;1.50;1.50;;;;;;;;;;5025690;28;20650;-59
2022/05/23 01:55:37;;;;;;;3.25;1.60;;;;;;;;;;5028158;28;20209;-60
2022/05/23 01:58:04;;;;;;;1.70;1.60;;;;;;;;;;5026573;28;20204;-59
2022/05/23 02:03:32;;;;;;;1.83;1.73;;;;;;;;;;4947199;29;20250;-59
2022/05/23 02:05:59;;;;;;;1.35;1.35;;;;;;;;;;4948496;29;20254;-59
2022/05/23 02:08:26;;;;;;;1.60;1.50;;;;;;;;;;4984751;28;20670;-59
2022/05/23 02:10:53;;;;;;;1.60;1.50;;;;;;;;;;5029261;28;20208;-59
2022/05/23 02:13:20;;;;;;;1.52;1.42;;;;;;;;;;5028685;28;20197;-59
2022/05/23 02:15:49;;;;;;;1.73;1.63;;;;;;;;;;5029332;28;20204;-59
2022/05/23 02:18:16;;;;;;;1.50;1.50;;;;;;;;;;5027626;28;20204;-60
2022/05/23 02:20:43;;;;;;;1.67;1.65;;;;;;;;;;5028127;28;20201;-60
2022/05/23 02:23:10;;;;;;;1.42;1.40;;;;;;;;;;5025112;28;20242;-59
2022/05/23 02:25:37;;;;;;;1.30;1.30;;;;;;;;;;5029222;28;20275;-59
2022/05/23 02:28:04;;;;;;;1.88;1.77;;;;;;;;;;5026305;28;20469;-59
2022/05/23 02:30:31;;;;;;;1.25;1.25;;;;;;;;;;5028952;28;20679;-59
2022/05/23 02:32:59;;;;;;;1.40;1.40;;;;;;;;;;5026937;28;20212;-60
2022/05/23 02:35:26;;;;;;;1.40;1.40;;;;;;;;;;5027159;28;20212;-59
2022/05/23 02:37:53;;;;;;;1.90;1.55;;;;;;;;;;5025356;28;20686;-63
2022/05/23 02:40:20;;;;;;;2.10;2.00;;;;;;;;;;5026766;28;20204;-59
2022/05/23 02:42:48;;;;;;;1.48;1.48;;;;;;;;;;5028406;28;20228;-59
2022/05/23 02:45:15;;;;;;;1.58;1.48;;;;;;;;;;5029067;28;20201;-60
2022/05/23 02:47:43;;;;;;;2.05;1.95;;;;;;;;;;5028844;28;20678;-60
2022/05/23 02:50:12;;;;;;;2.13;1.95;;;;;;;;;;5027879;28;20291;-60
2022/05/23 02:52:39;;;;;;;1.55;1.55;;;;;;;;;;5025473;28;20300;-60
2022/05/23 02:55:07;;;;;;;6.13;1.63;;;;;;;;;;5025560;28;20204;-60
2022/05/23 02:57:34;;;;;;;1.48;1.48;;;;;;;;;;5026729;28;20559;-60
2022/05/23 03:00:02;;;;;;;1.85;1.30;;;;;;;;;;5027078;28;20208;-60
2022/05/23 03:05:15;;;;;;;2.70;1.65;;;;;;;;;;5028025;28;20219;-60
2022/05/23 03:07:42;;;;;;;1.55;1.45;;;;;;;;;;5028018;28;20209;-59
2022/05/23 03:10:09;;;;;;;1.50;1.48;;;;;;;;;;5028250;28;20204;-60
2022/05/23 03:12:36;;;;;;;1.67;1.58;;;;;;;;;;5027560;28;20278;-60
2022/05/23 03:15:05;;;;;;;3.78;1.50;;;;;;;;;;5026998;28;20972;-59
2022/05/23 03:17:32;;;;;;;1.95;1.65;;;;;;;;;;5026321;28;20215;-60
2022/05/23 03:19:59;;;;;;;2.25;1.42;;;;;;;;;;5028341;28;20204;-60
2022/05/23 03:27:57;;;;;;;1.73;1.60;;;;;;;;;;5027875;28;20293;-60
2022/05/23 03:30:24;;;;;;;1.80;1.70;;;;;;;;;;5028496;28;20270;-60
2022/05/23 03:32:51;;;;;;;1.63;1.40;;;;;;;;;;5027176;28;20314;-60
2022/05/23 03:35:18;;;;;;;4.80;1.30;;;;;;;;;;5028179;28;20237;-60
2022/05/23 03:37:47;;;;;;;2.38;1.58;;;;;;;;;;5024392;28;20251;-60
2022/05/23 03:40:14;;;;;;;1.52;1.52;;;;;;;;;;5025723;28;20201;-60
2022/05/23 03:42:41;;;;;;;1.08;1.08;;;;;;;;;;5025421;28;20211;-60
2022/05/23 03:45:09;;;;;;;1.77;1.73;;;;;;;;;;5026774;28;20295;-60
2022/05/23 03:47:36;;;;;;;1.85;1.75;;;;;;;;;;5027744;28;20622;-60
2022/05/23 03:50:04;;;;;;;1.80;1.70;;;;;;;;;;5026935;28;20663;-58
2022/05/23 03:52:31;;;;;;;1.92;1.60;;;;;;;;;;5027330;28;20299;-58
2022/05/23 03:54:59;;;;;;;3.80;1.80;;;;;;;;;;5023391;28;20211;-58
2022/05/23 03:57:26;;;;;;;2.08;1.90;;;;;;;;;;5025706;28;20275;-60
2022/05/23 03:59:54;;;;;;;1.65;1.60;;;;;;;;;;5026347;28;20938;-60
2022/05/23 04:02:21;;;;;;;1.73;1.63;;;;;;;;;;5025124;28;20204;-58
2022/05/23 04:04:48;;;;;;;1.52;1.52;;;;;;;;;;5024372;28;20225;-58
2022/05/23 04:07:16;;;;;;;2.80;1.80;;;;;;;;;;5025462;28;20208;-58
2022/05/23 04:09:43;;;;;;;2.03;1.77;;;;;;;;;;5025909;28;20201;-58
2022/05/23 04:12:11;;;;;;;2.08;1.95;;;;;;;;;;5026853;28;20200;-58
2022/05/23 04:14:38;;;;;;;1.90;1.83;;;;;;;;;;5024880;28;20242;-58
2022/05/23 04:17:06;;;;;;;2.35;1.77;;;;;;;;;;5026614;28;20730;-58
2022/05/23 04:19:33;;;;;;;2.10;2.00;;;;;;;;;;5027748;28;20208;-58
2022/05/23 04:22:00;;;;;;;1.67;1.65;;;;;;;;;;5025604;28;20208;-58
2022/05/23 04:24:28;;;;;;;1.63;1.52;;;;;;;;;;5025123;28;20225;-59
2022/05/23 04:26:58;;;;;;;1.67;1.67;;;;;;;;;;5026145;28;20994;-60
2022/05/23 04:29:26;;;;;;;2.40;1.88;;;;;;;;;;5026482;28;20601;-61
2022/05/23 04:31:53;;;;;;;1.50;1.40;;;;;;;;;;5025769;28;20659;-60
2022/05/23 04:37:05;;;;;;;1.65;1.55;;;;;;;;;;5025647;28;20205;-61
2022/05/23 04:39:38;;;;;;;2.00;1.90;;;;;;;;;;5024371;28;20262;-60
2022/05/23 04:42:05;;;;;;;2.35;1.80;;;;;;;;;;5025840;28;20201;-60
2022/05/23 04:44:34;;;;;;;1.90;1.83;;;;;;;;;;5025187;28;20699;-60
2022/05/23 04:49:50;;;;;;;1.90;1.77;;;;;;;;;;5023828;28;20203;-61
2022/05/23 04:52:19;;;;;;;2.00;1.90;;;;;;;;;;5025381;28;20299;-61
2022/05/23 04:54:47;;;;;;;1.98;1.88;;;;;;;;;;5026042;28;20205;-61
2022/05/23 04:57:14;;;;;;;2.03;1.92;;;;;;;;;;5026040;28;20213;-62
2022/05/23 04:59:44;;;;;;;1.92;1.92;;;;;;;;;;5025819;28;20208;-60
2022/05/23 05:02:11;;;;;;;2.05;1.90;;;;;;;;;;5027244;28;20209;-61
2022/05/23 05:04:38;;;;;;;1.95;1.92;;;;;;;;;;5026635;28;20247;-60
2022/05/23 05:07:05;;;;;;;1.63;1.52;;;;;;;;;;5026049;28;20258;-60
2022/05/23 05:09:32;;;;;;;2.28;2.08;;;;;;;;;;5027218;28;20750;-61
2022/05/23 05:11:59;;;;;;;5.55;1.75;;;;;;;;;;5015686;28;20216;-61
2022/05/23 05:14:27;;;;;;;2.20;2.10;;;;;;;;;;5027487;28;20266;-61
2022/05/23 05:16:56;;;;;;;2.13;2.10;;;;;;;;;;5027359;28;20220;-61
2022/05/23 05:19:23;;;;;;;2.15;2.05;;;;;;;;;;5027402;28;20864;-62
2022/05/23 05:21:50;;;;;;;2.10;1.98;;;;;;;;;;5026770;28;20204;-62
2022/05/23 05:24:17;;;;;;;2.00;1.90;;;;;;;;;;5012988;28;20774;-62
2022/05/23 05:26:44;;;;;;;2.25;2.05;;;;;;;;;;5017096;28;20238;-62
2022/05/23 05:29:11;;;;;;;2.20;2.10;;;;;;;;;;5027750;28;20309;-63
2022/05/23 05:31:42;;;;;;;2.80;2.28;;;;;;;;;;5027213;28;20216;-62
2022/05/23 05:34:13;;;;;;;2.28;2.08;;;;;;;;;;5027617;28;20639;-64
2022/05/23 05:36:41;;;;;;;2.28;1.98;;;;;;;;;;5026218;28;20204;-62
2022/05/23 05:39:09;;;;;;;2.45;2.25;;;;;;;;;;5014870;28;20209;-62
2022/05/23 05:41:39;;;;;;;2.17;2.05;;;;;;;;;;5008066;28;20217;-62
2022/05/23 05:44:08;;;;;;;1.98;1.88;;;;;;;;;;5027083;28;20230;-64
2022/05/23 05:46:36;;;;;;;2.40;2.30;;;;;;;;;;5027380;28;20298;-62
2022/05/23 05:49:06;;;;;;;5.70;2.65;;;;;;;;;;5026996;28;20224;-62
2022/05/23 05:51:35;;;;;;;2.75;2.40;;;;;;;;;;5027186;28;20204;-62
2022/05/23 05:54:02;;;;;;;2.17;2.08;;;;;;;;;;5027233;28;20208;-62
2022/05/23 05:56:29;;;;;;;3.00;2.45;;;;;;;;;;5027095;28;20265;-62
2022/05/23 05:58:56;;;;;;;2.50;2.40;;;;;;;;;;5027242;28;20227;-62
2022/05/23 06:01:24;;;;;;;3.25;2.33;;;;;;;;;;5027139;28;20585;-63
2022/05/23 06:03:52;;;;;;;2.28;2.17;;;;;;;;;;5026843;28;20830;-61
2022/05/23 06:11:50;;;;;;;2.08;1.90;;;;;;;;;;5026099;28;20251;-61
2022/05/23 06:14:17;;;;;;;1.45;1.45;;;;;;;;;;5027094;28;20200;-61
2022/05/23 06:16:44;;;;;;;1.92;1.83;;;;;;;;;;5026988;28;20251;-61
2022/05/23 06:19:11;;;;;;;2.15;1.95;;;;;;;;;;5027335;28;20220;-61
2022/05/23 06:21:38;;;;;;;1.92;1.83;;;;;;;;;;5023399;28;20219;-61
2022/05/23 06:24:07;;;;;;;2.45;1.92;;;;;;;;;;5011730;28;20286;-61
2022/05/23 06:26:34;;;;;;;1.60;1.60;;;;;;;;;;5014531;28;20244;-61
2022/05/23 06:29:01;;;;;;;1.88;1.85;;;;;;;;;;5026971;28;20730;-61
2022/05/23 06:31:28;;;;;;;3.70;1.88;;;;;;;;;;5030896;28;20223;-62
2022/05/23 06:33:55;;;;;;;2.10;1.88;;;;;;;;;;5030703;28;20209;-62
2022/05/23 06:36:22;;;;;;;1.75;1.67;;;;;;;;;;5030280;28;20220;-61
2022/05/23 06:38:49;;;;;;;2.17;2.08;;;;;;;;;;5027287;28;20296;-61
2022/05/23 06:41:18;;;;;;;2.00;1.90;;;;;;;;;;5010428;28;20678;-61
2022/05/23 06:43:45;;;;;;;2.60;2.40;;;;;;;;;;5010375;28;20205;-61
2022/05/23 06:46:13;;;;;;;5.55;2.10;;;;;;;;;;5010737;28;20746;-63
2022/05/23 06:48:40;;;;;;;1.80;1.70;;;;;;;;;;5010547;28;20221;-63
2022/05/23 06:51:08;;;;;;;1.98;1.92;;;;;;;;;;5010607;28;20275;-63
2022/05/23 06:53:35;;;;;;;3.80;1.80;;;;;;;;;;5010260;28;20204;-62
2022/05/23 06:56:02;;;;;;;1.70;1.70;;;;;;;;;;5013660;28;20212;-62
2022/05/23 06:58:30;;;;;;;1.90;1.80;;;;;;;;;;5030272;28;20212;-62
2022/05/23 07:00:57;;;;;;;2.50;2.03;;;;;;;;;;5030058;28;20616;-62
2022/05/23 07:03:25;;;;;;;1.55;1.52;;;;;;;;;;5030016;28;20748;-62
2022/05/23 07:14:08;;;;;;;2.80;1.77;;;;;;;;;;5029897;28;20266;-62
2022/05/23 07:16:35;;;;;;;1.70;1.60;;;;;;;;;;5029548;28;20204;-62
2022/05/23 07:19:04;;;;;;;2.67;1.60;;;;;;;;;;5029501;28;20212;-62
2022/05/23 07:21:32;;;;;;;1.85;1.75;;;;;;;;;;5029484;28;20714;-62
2022/05/23 07:23:59;;;;;;;1.95;1.85;;;;;;;;;;5026377;28;20315;-62
2022/05/23 07:26:26;;;;;;;3.72;1.85;;;;;;;;;;5029137;28;20236;-61
2022/05/23 07:28:53;;;;;;;1.48;1.48;;;;;;;;;;5029038;28;20722;-60
2022/05/23 07:31:22;;;;;;;1.60;1.50;;;;;;;;;;5029314;28;20216;-61
2022/05/23 07:33:49;;;;;;;1.90;1.80;;;;;;;;;;5028907;28;20394;-61
2022/05/23 07:36:16;;;;;;;1.50;1.50;;;;;;;;;;5024218;28;20892;-61
2022/05/23 07:38:43;;;;;;;2.35;1.70;;;;;;;;;;5020129;28;20238;-61
2022/05/23 07:41:11;;;;;;;1.70;1.60;;;;;;;;;;5009256;28;20213;-62
2022/05/23 07:43:41;;;;;;;1.60;1.58;;;;;;;;;;5010524;28;20267;-61
2022/05/23 07:46:09;;;;;;;1.80;1.42;;;;;;;;;;5028940;28;20232;-61
2022/05/23 07:48:38;;;;;;;1.70;1.60;;;;;;;;;;5028859;28;20761;-58
2022/05/23 07:51:05;;;;;;;1.55;1.52;;;;;;;;;;5024228;28;20197;-58
2022/05/23 08:01:52;;;;;;;1.80;1.70;;;;;;;;;;5028255;28;20694;-60
2022/05/23 08:04:20;;;;;;;1.52;1.42;;;;;;;;;;5028508;28;20733;-59
2022/05/23 08:06:48;;;;;;;1.40;1.40;;;;;;;;;;5028477;28;20212;-60
2022/05/23 08:09:16;;;;;;;1.40;1.40;;;;;;;;;;5028594;28;20215;-59
2022/05/23 08:11:45;;;;;;;3.53;1.80;;;;;;;;;;5028326;28;20200;-59
2022/05/23 08:14:12;;;;;;;1.90;1.80;;;;;;;;;;5028423;28;20219;-59
2022/05/23 08:16:39;;;;;;;1.67;1.60;;;;;;;;;;5026976;28;20682;-59
2022/05/23 08:19:07;;;;;;;1.45;1.45;;;;;;;;;;5027163;28;20278;-59
2022/05/23 08:21:36;;;;;;;3.65;1.77;;;;;;;;;;5009642;28;20439;-59
2022/05/23 08:24:03;;;;;;;1.50;1.40;;;;;;;;;;5024927;28;20211;-59
2022/05/23 08:26:30;;;;;;;1.30;1.30;;;;;;;;;;5028691;28;20714;-59
2022/05/23 08:28:57;;;;;;;1.60;1.60;;;;;;;;;;5028605;28;20278;-59
2022/05/23 08:31:24;;;;;;;1.30;1.30;;;;;;;;;;5028856;28;20211;-59
2022/05/23 08:33:51;;;;;;;1.73;1.70;;;;;;;;;;5025787;28;20925;-59
2022/05/23 08:36:33;;;;;;;1.60;1.60;;;;;;;;;;5028699;28;20258;-59
2022/05/23 08:39:01;;;;;;;1.77;1.67;;;;;;;;;;5028901;28;20242;-59
2022/05/23 08:41:30;;;;;;;1.77;1.73;;;;;;;;;;5028910;28;20302;-59
2022/05/23 08:44:04;;;;;;;1.70;1.65;;;;;;;;;;5028862;28;20212;-60
2022/05/23 08:46:35;;;;;;;1.77;1.63;;;;;;;;;;5028647;28;20579;-60
2022/05/23 08:49:05;;;;;;;1.85;1.75;;;;;;;;;;5028384;28;20235;-60
2022/05/23 08:51:37;;;;;;;1.90;1.80;;;;;;;;;;5028533;28;20640;-59
2022/05/23 08:54:13;;;;;;;1.50;1.50;;;;;;;;;;5028196;28;20208;-60
2022/05/23 08:56:43;;;;;;;1.95;1.88;;;;;;;;;;5028355;28;20215;-60
2022/05/23 08:59:14;;;;;;;2.40;2.30;;;;;;;;;;5028289;28;20259;-61
2022/05/23 09:01:45;;;;;;;2.00;1.80;;;;;;;;;;5028745;28;20219;-61
2022/05/23 09:04:14;;;;;;;1.85;1.75;;;;;;;;;;5028599;28;20678;-61
2022/05/23 09:06:43;;;;;;;1.83;1.73;;;;;;;;;;5028274;28;20259;-60
2022/05/23 09:09:14;;;;;;;2.58;1.60;;;;;;;;;;5028451;28;20254;-61
2022/05/23 09:11:42;;;;;;;1.58;1.50;;;;;;;;;;5028159;28;20208;-60
2022/05/23 09:14:11;;;;;;;1.50;1.40;;;;;;;;;;5028252;28;20212;-60
2022/05/23 09:16:40;;;;;;;1.45;1.45;;;;;;;;;;5028124;28;20204;-61
2022/05/23 09:19:13;;;;;;;1.80;1.70;;;;;;;;;;5028219;28;20267;-60
2022/05/23 09:24:40;;;;;;;2.85;1.58;;;;;;;;;;5028220;28;20207;-60
2022/05/23 09:27:11;;;;;;;1.40;1.40;;;;;;;;;;5027741;28;20235;-60
2022/05/23 09:29:38;;;;;;;1.98;1.88;;;;;;;;;;5028042;28;20244;-61
2022/05/23 09:32:08;;;;;;;2.00;1.88;;;;;;;;;;5027949;28;20691;-61
2022/05/23 09:34:36;;;;;;;1.85;1.70;;;;;;;;;;5027979;28;20329;-61
2022/05/23 09:37:05;;;;;;;1.38;1.38;;;;;;;;;;5027856;28;20262;-61
2022/05/23 09:39:34;;;;;;;2.53;2.33;;;;;;;;;;5027944;28;20208;-61
2022/05/23 09:47:49;;;;;;;2.00;1.90;;;;;;;;;;5027797;28;20203;-62
2022/05/23 09:50:30;;;;;;;3.13;1.80;;;;;;;;;;5028016;28;20216;-61
2022/05/23 09:52:59;;;;;;;2.17;2.08;;;;;;;;;;5028468;28;20216;-61
2022/05/23 09:55:31;;;;;;;2.50;2.40;;;;;;;;;;5028315;28;20205;-61
2022/05/23 09:57:59;;;;;;;2.17;2.08;;;;;;;;;;5028068;28;20215;-64
2022/05/23 10:00:36;;;;;;;2.85;2.65;;;;;;;;;;5027734;28;20211;-62
2022/05/23 10:03:05;;;;;;;2.75;2.08;;;;;;;;;;5027907;28;20216;-63
2022/05/23 10:05:34;;;;;;;3.90;2.10;;;;;;;;;;5030074;28;20235;-64
2022/05/23 10:08:01;;;;;;;3.35;2.60;;;;;;;;;;5031569;28;20310;-64
2022/05/23 10:10:31;;;;;;;2.78;2.30;;;;;;;;;;5031581;28;20250;-64
2022/05/23 10:13:17;;;;;;;5.25;2.08;;;;;;;;;;5031677;28;20624;-64
2022/05/23 10:15:44;;;;;;;2.00;1.92;;;;;;;;;;5031716;28;20204;-64
2022/05/23 10:18:12;;;;;;;2.25;2.15;;;;;;;;;;5031062;28;20232;-62
2022/05/23 10:20:40;;;;;;;2.65;2.10;;;;;;;;;;5030661;28;20204;-64
2022/05/23 10:23:08;;;;;;;1.67;1.65;;;;;;;;;;5030581;28;20212;-62
2022/05/23 10:25:40;;;;;;;2.08;1.95;;;;;;;;;;5030217;28;20990;-63
2022/05/23 10:28:11;;;;;;;3.50;2.47;;;;;;;;;;5030090;28;20236;-63
2022/05/23 10:30:38;;;;;;;2.28;2.17;;;;;;;;;;5030311;28;20208;-63
2022/05/23 10:33:09;;;;;;;2.08;1.85;;;;;;;;;;5030420;28;20368;-63
2022/05/23 10:35:38;;;;;;;2.00;1.90;;;;;;;;;;5030898;28;20717;-63
2022/05/23 10:43:51;;;;;;;2.70;2.60;;;;;;;;;;5031151;28;20669;-63
2022/05/23 10:46:18;;;;;;;2.28;2.10;;;;;;;;;;5030658;28;20713;-64
2022/05/23 10:48:50;;;;;;;2.95;1.83;;;;;;;;;;5031018;28;20216;-63
2022/05/23 10:51:25;;;;;;;2.20;2.00;;;;;;;;;;5030704;28;20235;-64
2022/05/23 10:53:57;;;;;;;2.47;2.28;;;;;;;;;;5030251;28;20553;-62
2022/05/23 10:56:32;;;;;;;4.47;2.50;;;;;;;;;;5030317;28;20209;-61
2022/05/23 10:59:00;;;;;;;2.28;2.15;;;;;;;;;;5031187;28;20299;-61
2022/05/23 11:01:33;;;;;;;1.90;1.90;;;;;;;;;;5030583;28;20650;-65
2022/05/23 11:04:07;;;;;;;2.67;2.47;;;;;;;;;;5030885;28;20212;-61
2022/05/23 11:06:40;;;;;;;1.98;1.88;;;;;;;;;;5030644;28;20681;-61
2022/05/23 11:09:12;;;;;;;2.08;1.98;;;;;;;;;;5028641;28;20667;-64
2022/05/23 11:11:51;;;;;;;3.90;2.70;;;;;;;;;;5029812;28;20204;-59
2022/05/23 11:14:23;;;;;;;2.15;2.05;;;;;;;;;;5030419;28;20214;-60
2022/05/23 11:16:54;;;;;;;2.17;2.05;;;;;;;;;;5029870;28;20291;-59
2022/05/23 11:19:26;;;;;;;2.70;2.00;;;;;;;;;;5030645;28;20208;-59
2022/05/23 11:21:58;;;;;;;1.60;1.60;;;;;;;;;;5029945;28;20205;-59
2022/05/23 11:24:28;;;;;;;1.80;1.70;;;;;;;;;;5022726;28;20228;-59
2022/05/23 11:33:41;;;;;;;2.28;2.00;;;;;;;;;;5020689;28;20236;-59
2022/05/23 11:35:23;;;;;;;1.63;1.52;;;;;;;;;;5030368;28;20198;-60
2022/05/23 11:37:50;;;;;;;1.40;1.30;;;;;;;;;;5029719;28;20475;-62
2022/05/23 11:40:32;;;;;;;1.20;1.20;;;;;;;;;;5028693;28;20213;-63
2022/05/23 11:43:02;;;;;;;2.95;1.98;;;;;;;;;;5020628;28;20208;-62
2022/05/23 11:48:31;;;;;;;1.58;1.50;;;;;;;;;;5021200;28;20203;-61
2022/05/23 11:51:09;;;;;;;2.60;1.60;;;;;;;;;;5010332;28;20571;-62
2022/05/23 11:53:37;;;;;;;1.70;1.60;;;;;;;;;;5025668;28;20228;-62
2022/05/23 11:56:07;;;;;;;2.28;1.95;;;;;;;;;;5029120;28;20196;-62
2022/05/23 11:58:41;;;;;;;1.52;1.42;;;;;;;;;;5027998;28;20244;-60
2022/05/23 12:01:17;;;;;;;2.15;1.77;;;;;;;;;;5028386;28;20215;-62
2022/05/23 12:04:05;;;;;;;3.97;1.85;;;;;;;;;;5019067;28;20220;-62
2022/05/23 12:06:37;;;;;;;1.85;1.75;;;;;;;;;;5019455;28;20224;-63
2022/05/23 12:09:06;;;;;;;3.90;1.73;;;;;;;;;;5015896;28;20236;-61
2022/05/23 12:11:35;;;;;;;2.03;1.98;;;;;;;;;;5023722;28;20220;-61
2022/05/23 12:14:16;;;;;;;1.90;1.85;;;;;;;;;;5026257;28;20211;-61
2022/05/23 12:16:44;;;;;;;2.00;1.90;;;;;;;;;;5027815;28;20693;-62
2022/05/23 12:19:27;;;;;;;1.73;1.73;;;;;;;;;;5028821;28;20205;-61
2022/05/23 12:21:55;;;;;;;2.15;1.98;;;;;;;;;;5026575;28;20251;-62
2022/05/23 12:24:27;;;;;;;1.92;1.80;;;;;;;;;;5027863;28;20262;-62
2022/05/23 12:26:56;;;;;;;2.90;2.28;;;;;;;;;;5027334;28;20232;-61
2022/05/23 12:29:29;;;;;;;2.90;2.05;;;;;;;;;;5028496;28;20251;-61
2022/05/23 12:32:11;;;;;;;1.90;1.80;;;;;;;;;;5028864;28;20232;-61
2022/05/23 12:34:42;;;;;;;2.10;2.00;;;;;;;;;;5027670;28;20214;-61
2022/05/23 12:37:15;;;;;;;2.20;2.10;;;;;;;;;;5018567;28;20323;-62
2022/05/23 12:40:01;;;;;;;1.92;1.83;;;;;;;;;;5019696;28;20208;-62
2022/05/23 12:42:36;;;;;;;4.15;1.73;;;;;;;;;;4999679;28;20212;-62
2022/05/23 12:45:12;;;;;;;1.88;1.80;;;;;;;;;;5010771;28;20248;-62
2022/05/23 12:47:48;;;;;;;1.92;1.83;;;;;;;;;;5021668;28;20228;-63
2022/05/23 12:50:20;;;;;;;2.38;2.22;;;;;;;;;;5028939;28;20208;-60
2022/05/23 12:52:58;;;;;;;2.45;2.00;;;;;;;;;;5024953;28;20215;-60
2022/05/23 12:55:32;;;;;;;2.15;2.00;;;;;;;;;;5026084;28;20212;-60
2022/05/23 12:58:18;;;;;;;2.55;2.03;;;;;;;;;;5023058;28;20209;-64
2022/05/23 13:00:49;;;;;;;2.35;2.25;;;;;;;;;;5019957;28;20674;-60
2022/05/23 13:03:24;;;;;;;2.80;2.60;;;;;;;;;;5027431;28;20207;-62
2022/05/23 13:05:56;;;;;;;2.72;2.50;;;;;;;;;;5017056;28;20243;-58
2022/05/23 13:08:24;;;;;;;2.40;2.20;;;;;;;;;;5027444;28;20219;-58
2022/05/23 13:10:56;;;;;;;2.47;2.28;;;;;;;;;;5013787;28;20614;-58
2022/05/23 13:13:26;;;;;;;2.60;2.50;;;;;;;;;;5025283;28;20204;-59
2022/05/23 13:15:54;;;;;;;2.65;2.45;;;;;;;;;;5017694;28;20663;-59
2022/05/23 13:23:54;;;;;;;2.88;2.22;;;;;;;;;;4994605;28;20223;-60
2022/05/23 13:26:21;;;;;;;3.15;2.53;;;;;;;;;;5026541;28;20232;-58
2022/05/23 13:28:50;;;;;;;3.08;2.80;;;;;;;;;;5011762;28;21869;-58
2022/05/23 13:31:26;;;;;;;2.38;2.15;;;;;;;;;;5028474;28;20617;-58
2022/05/23 13:33:55;;;;;;;2.72;2.63;;;;;;;;;;5028042;28;20207;-60
2022/05/23 13:36:22;;;;;;;2.70;2.60;;;;;;;;;;5028341;28;20864;-58
2022/05/23 13:39:03;;;;;;;3.08;2.58;;;;;;;;;;5026004;28;20694;-59
2022/05/23 13:41:31;;;;;;;4.72;2.88;;;;;;;;;;5023211;28;20601;-58
2022/05/23 13:43:58;;;;;;;2.63;2.53;;;;;;;;;;5032417;28;20208;-58
2022/05/23 13:46:28;;;;;;;2.65;2.45;;;;;;;;;;5031714;28;20243;-59
2022/05/23 13:49:00;;;;;;;2.85;2.72;;;;;;;;;;5032471;28;20224;-60
2022/05/23 13:51:29;;;;;;;2.85;2.60;;;;;;;;;;5032064;28;20295;-59
2022/05/23 13:53:58;;;;;;;2.83;2.63;;;;;;;;;;5032013;28;20216;-60
2022/05/23 13:56:26;;;;;;;3.45;3.17;;;;;;;;;;5031905;28;20555;-59
2022/05/23 13:58:55;;;;;;;2.53;2.42;;;;;;;;;;5025810;28;20219;-59
2022/05/23 14:01:26;;;;;;;3.50;3.20;;;;;;;;;;5023144;28;20311;-60
2022/05/23 14:03:57;;;;;;;3.47;3.20;;;;;;;;;;5020824;28;20204;-61
2022/05/23 14:06:35;;;;;;;2.92;2.63;;;;;;;;;;5021903;28;20239;-58
2022/05/23 14:09:04;;;;;;;2.42;2.33;;;;;;;;;;5021376;28;20204;-60
2022/05/23 14:11:32;;;;;;;4.63;2.42;;;;;;;;;;5023317;28;20204;-60
2022/05/23 14:14:03;;;;;;;3.08;2.80;;;;;;;;;;5022569;28;20546;-60
2022/05/23 14:16:30;;;;;;;4.10;2.65;;;;;;;;;;5020190;28;20219;-60
2022/05/23 14:19:14;;;;;;;2.40;2.22;;;;;;;;;;5020792;28;20211;-60
2022/05/23 14:21:41;;;;;;;2.33;2.17;;;;;;;;;;5020467;28;20674;-60
2022/05/23 14:24:18;;;;;;;2.70;2.47;;;;;;;;;;5021406;28;20213;-60
2022/05/23 14:27:01;;;;;;;3.85;2.40;;;;;;;;;;5021146;28;20243;-60
2022/05/23 14:29:28;;;;;;;2.55;2.33;;;;;;;;;;5020927;28;20248;-60
2022/05/23 14:32:00;;;;;;;2.30;2.20;;;;;;;;;;5019562;28;20216;-60
2022/05/23 14:34:30;;;;;;;2.50;2.30;;;;;;;;;;5020297;28;20210;-60
2022/05/23 14:36:58;;;;;;;5.97;2.15;;;;;;;;;;5023932;28;20212;-59
2022/05/23 14:39:27;;;;;;;2.10;2.00;;;;;;;;;;5014904;28;20241;-60
2022/05/23 14:41:55;;;;;;;2.25;2.15;;;;;;;;;;5029780;28;20258;-60
2022/05/23 14:44:31;;;;;;;2.17;2.00;;;;;;;;;;5029485;28;20212;-60
2022/05/23 14:47:02;;;;;;;5.45;2.22;;;;;;;;;;5029288;28;20318;-61
2022/05/23 14:49:32;;;;;;;2.40;2.20;;;;;;;;;;5029729;28;20304;-60
2022/05/23 14:52:00;;;;;;;2.63;2.03;;;;;;;;;;5030357;28;20286;-59
2022/05/23 15:02:50;;;;;;;2.65;2.30;;;;;;;;;;5022923;28;20250;-60
2022/05/23 15:05:19;;;;;;;2.28;2.17;;;;;;;;;;5030007;28;20786;-60
2022/05/23 15:07:46;;;;;;;2.65;1.98;;;;;;;;;;5029886;28;20228;-60
2022/05/23 15:10:14;;;;;;;2.08;1.73;;;;;;;;;;5030835;28;20217;-60
2022/05/23 15:12:41;;;;;;;2.20;1.95;;;;;;;;;;5029148;28;20734;-60
2022/05/23 15:15:08;;;;;;;2.05;1.95;;;;;;;;;;5030207;28;20235;-59
2022/05/23 15:17:35;;;;;;;2.20;2.10;;;;;;;;;;5029505;28;20318;-59
2022/05/23 15:20:03;;;;;;;1.83;1.73;;;;;;;;;;5030145;28;20266;-60
2022/05/23 15:22:31;;;;;;;2.42;2.33;;;;;;;;;;5030219;28;20212;-59
2022/05/23 15:25:00;;;;;;;2.55;2.08;;;;;;;;;;5027451;28;20387;-60
2022/05/23 15:27:28;;;;;;;2.05;1.85;;;;;;;;;;5028693;28;20612;-60
2022/05/23 15:29:56;;;;;;;3.15;2.10;;;;;;;;;;5030105;28;20689;-60
2022/05/23 15:32:24;;;;;;;2.33;2.22;;;;;;;;;;5029807;28;20686;-60
2022/05/23 15:34:51;;;;;;;3.20;2.65;;;;;;;;;;5030387;28;20208;-60
2022/05/23 15:37:18;;;;;;;2.20;2.10;;;;;;;;;;5026019;28;20204;-60
2022/05/23 15:39:46;;;;;;;2.65;2.45;;;;;;;;;;5029577;28;20674;-59
2022/05/23 15:42:15;;;;;;;3.03;2.40;;;;;;;;;;5028829;28;20219;-58
2022/05/23 15:44:42;;;;;;;2.30;2.20;;;;;;;;;;5027250;28;20216;-59
2022/05/23 15:47:11;;;;;;;3.95;2.10;;;;;;;;;;5027923;28;20228;-59
2022/05/23 15:49:38;;;;;;;2.55;2.45;;;;;;;;;;5019778;28;20688;-59
2022/05/23 15:52:08;;;;;;;2.40;2.17;;;;;;;;;;5027304;28;20686;-59
2022/05/23 15:54:35;;;;;;;3.20;2.45;;;;;;;;;;5027469;28;20308;-58
2022/05/23 15:57:04;;;;;;;2.42;2.22;;;;;;;;;;5029098;28;20215;-59
2022/05/23 15:59:32;;;;;;;1.70;1.60;;;;;;;;;;5028707;28;20683;-59
2022/05/23 16:01:59;;;;;;;2.33;2.22;;;;;;;;;;5029271;28;20212;-58
2022/05/23 16:04:31;;;;;;;2.80;2.33;;;;;;;;;;5029783;28;20212;-58
2022/05/23 16:06:58;;;;;;;2.92;2.47;;;;;;;;;;5029569;28;20228;-58
2022/05/23 16:09:25;;;;;;;5.20;2.30;;;;;;;;;;5029093;28;20208;-58
2022/05/23 16:11:54;;;;;;;2.88;2.20;;;;;;;;;;5029240;28;20619;-59
2022/05/23 16:14:24;;;;;;;2.70;2.25;;;;;;;;;;5028215;28;20212;-58
2022/05/23 16:16:55;;;;;;;2.60;2.25;;;;;;;;;;5016889;28;20203;-58